createdAt,value
2019-05-19T00:01:14.781Z,97484.28
2019-05-19T00:03:45.307Z,97482.27
2019-05-19T00:06:15.498Z,97490.00
2019-05-19T00:08:45.709Z,97487.31
2019-05-19T00:11:16.974Z,97491.53
2019-05-19T00:13:47.634Z,97484.30
2019-05-19T00:16:17.821Z,97492.36
2019-05-19T00:18:48.174Z,97491.69
2019-05-19T00:21:18.689Z,97486.98
2019-05-19T00:23:49.242Z,97481.62
2019-05-19T00:26:19.772Z,97489.84
2019-05-19T00:28:50.051Z,97488.98
2019-05-19T00:31:20.328Z,97489.33
2019-05-19T00:33:50.537Z,97488.31
2019-05-19T00:36:21.033Z,97486.81
2019-05-19T00:38:51.234Z,97485.30
2019-05-19T00:41:21.437Z,97494.52
2019-05-19T00:43:51.650Z,97490.32
2019-05-19T00:46:21.850Z,97490.32
2019-05-19T00:48:52.115Z,97492.50
2019-05-19T00:51:23.564Z,97486.97
2019-05-19T00:53:53.809Z,97485.63
2019-05-19T00:56:24.956Z,97482.08
2019-05-19T00:58:57.651Z,97483.95
2019-05-19T01:01:27.833Z,97473.22
2019-05-19T01:03:58.419Z,97482.63
2019-05-19T01:06:28.954Z,97479.45
2019-05-19T01:08:59.159Z,97476.61
2019-05-19T01:11:30.565Z,97472.07
2019-05-19T01:14:01.058Z,97467.55
2019-05-19T01:16:31.234Z,97472.75
2019-05-19T01:19:01.417Z,97471.25
2019-05-19T01:21:32.217Z,97478.60
2019-05-19T01:24:02.769Z,97480.27
2019-05-19T01:26:33.108Z,97478.76
2019-05-19T01:29:03.351Z,97471.91
2019-05-19T01:31:33.624Z,97472.58
2019-05-19T01:34:04.864Z,97478.45
2019-05-19T01:36:35.170Z,97481.79
2019-05-19T01:39:06.499Z,97481.64
2019-05-19T01:41:37.083Z,97483.30
2019-05-19T01:44:07.306Z,97486.65
2019-05-19T01:46:37.522Z,97495.38
2019-05-19T01:49:08.094Z,97496.38
2019-05-19T01:51:38.323Z,97496.38
2019-05-19T01:54:08.501Z,97496.89
2019-05-19T01:56:38.775Z,97497.24
2019-05-19T01:59:08.955Z,97494.70
2019-05-19T02:01:39.159Z,97498.24
2019-05-19T02:04:09.343Z,97498.08
2019-05-19T02:06:39.590Z,97495.73
2019-05-19T02:09:10.031Z,97491.37
2019-05-19T02:11:40.244Z,97488.16
2019-05-19T02:14:10.442Z,97490.17
2019-05-19T02:19:38.504Z,97485.98
2019-05-19T02:22:09.013Z,97491.52
2019-05-19T02:24:39.247Z,97493.02
2019-05-19T02:27:09.535Z,97497.55
2019-05-19T02:29:39.821Z,97488.31
2019-05-19T02:32:10.277Z,97490.02
2019-05-19T02:34:40.456Z,97494.02
2019-05-19T02:37:11.273Z,97489.14
2019-05-19T02:39:41.446Z,97491.31
2019-05-19T02:42:13.664Z,97490.67
2019-05-19T02:44:45.507Z,97490.66
2019-05-19T02:47:17.507Z,97488.13
2019-05-19T02:49:48.888Z,97487.64
2019-05-19T02:52:19.825Z,97483.77
2019-05-19T02:54:51.611Z,97486.63
2019-05-19T02:57:22.922Z,97487.47
2019-05-19T02:59:53.203Z,97483.09
2019-05-19T03:02:23.429Z,97484.92
2019-05-19T03:04:53.602Z,97473.85
2019-05-19T03:07:25.204Z,97483.57
2019-05-19T03:09:55.420Z,97478.91
2019-05-19T03:12:25.956Z,97480.09
2019-05-19T03:14:56.134Z,97480.55
2019-05-19T03:17:26.356Z,97485.94
2019-05-19T03:19:56.829Z,97484.25
2019-05-19T03:22:27.030Z,97487.59
2019-05-19T03:24:57.552Z,97486.91
2019-05-19T03:27:27.764Z,97485.75
2019-05-19T03:29:59.902Z,97482.56
2019-05-19T03:32:44.343Z,97480.56
2019-05-19T03:35:14.501Z,97485.58
2019-05-19T03:37:44.728Z,97485.40
2019-05-19T03:40:21.098Z,97481.88
2019-05-19T03:42:52.056Z,97476.69
2019-05-19T03:45:22.339Z,97484.72
2019-05-19T03:47:52.549Z,97487.23
2019-05-19T03:50:22.730Z,97483.36
2019-05-19T03:52:52.941Z,97478.98
2019-05-19T03:55:23.121Z,97485.20
2019-05-19T03:57:53.341Z,97479.70
2019-05-19T04:00:23.925Z,97481.71
2019-05-19T04:02:54.134Z,97482.22
2019-05-19T04:05:24.591Z,97489.42
2019-05-19T04:07:54.790Z,97489.25
2019-05-19T04:10:24.970Z,97488.44
2019-05-19T04:12:55.185Z,97484.23
2019-05-19T04:15:25.374Z,97484.73
2019-05-19T04:17:55.593Z,97483.07
2019-05-19T04:20:25.792Z,97481.89
2019-05-19T04:22:56.006Z,97481.59
2019-05-19T04:25:26.665Z,97485.28
2019-05-19T04:27:56.961Z,97487.12
2019-05-19T04:30:27.169Z,97489.65
2019-05-19T04:32:57.776Z,97488.63
2019-05-19T04:35:28.013Z,97482.61
2019-05-19T04:37:58.328Z,97487.31
2019-05-19T04:40:28.600Z,97483.95
2019-05-19T04:42:58.808Z,97487.29
2019-05-19T04:45:29.077Z,97488.48
2019-05-19T04:47:59.287Z,97481.76
2019-05-19T04:50:29.467Z,97485.95
2019-05-19T04:52:59.787Z,97484.63
2019-05-19T04:55:29.978Z,97489.67
2019-05-19T04:58:00.179Z,97484.63
2019-05-19T05:00:30.394Z,97488.34
2019-05-19T05:03:01.391Z,97487.34
2019-05-19T05:05:31.876Z,97490.03
2019-05-19T05:08:02.096Z,97494.56
2019-05-19T05:10:32.248Z,97496.38
2019-05-19T05:13:02.467Z,97495.39
2019-05-19T05:15:32.657Z,97490.20
2019-05-19T05:18:03.184Z,97487.00
2019-05-19T05:20:33.567Z,97492.85
2019-05-19T05:23:03.771Z,97488.19
2019-05-19T05:25:34.120Z,97488.19
2019-05-19T05:28:04.397Z,97487.33
2019-05-19T05:30:34.913Z,97477.24
2019-05-19T05:33:05.128Z,97477.57
2019-05-19T05:35:35.690Z,97475.17
2019-05-19T05:38:06.192Z,97467.98
2019-05-19T05:40:36.369Z,97465.10
2019-05-19T05:43:06.958Z,97468.75
2019-05-19T05:45:37.167Z,97460.20
2019-05-19T05:48:07.478Z,97463.69
2019-05-19T05:50:38.073Z,97459.18
2019-05-19T05:53:08.286Z,97457.96
2019-05-19T05:55:38.604Z,97465.46
2019-05-19T05:58:09.439Z,97470.48
2019-05-19T06:00:40.682Z,97456.88
2019-05-19T06:03:11.186Z,97459.56
2019-05-19T06:05:41.473Z,97461.48
2019-05-19T06:08:11.686Z,97456.88
2019-05-19T06:10:42.569Z,97456.63
2019-05-19T06:13:12.786Z,97455.66
2019-05-19T06:15:42.978Z,97443.78
2019-05-19T06:18:13.190Z,97444.97
2019-05-19T06:20:43.369Z,97450.02
2019-05-19T06:23:13.586Z,97447.34
2019-05-19T06:25:43.868Z,97454.64
2019-05-19T06:28:14.089Z,97448.91
2019-05-19T06:30:44.947Z,97457.19
2019-05-19T06:33:15.664Z,97456.63
2019-05-19T06:35:45.857Z,97449.20
2019-05-19T06:38:16.445Z,97461.92
2019-05-19T06:40:46.689Z,97459.94
2019-05-19T06:43:16.970Z,97457.79
2019-05-19T06:45:47.489Z,97460.09
2019-05-19T06:48:17.723Z,97448.20
2019-05-19T06:50:48.287Z,97448.16
2019-05-19T06:53:18.465Z,97448.16
2019-05-19T06:55:48.724Z,97453.49
2019-05-19T06:58:18.966Z,97452.41
2019-05-19T07:00:49.228Z,97445.69
2019-05-19T07:03:21.287Z,97447.84
2019-05-19T07:05:52.008Z,97447.37
2019-05-19T07:08:22.203Z,97444.88
2019-05-19T07:10:52.530Z,97453.19
2019-05-19T07:13:22.784Z,97443.88
2019-05-19T07:15:53.673Z,97443.88
2019-05-19T07:18:24.446Z,97449.92
2019-05-19T07:20:54.651Z,97452.20
2019-05-19T07:23:28.440Z,97444.06
2019-05-19T07:25:57.072Z,97448.25
2019-05-19T07:28:27.298Z,97446.25
2019-05-19T07:30:57.555Z,97442.58
2019-05-19T07:33:27.756Z,97442.56
2019-05-19T07:35:58.071Z,97435.67
2019-05-19T07:38:29.911Z,97443.88
2019-05-19T07:41:00.420Z,97442.37
2019-05-19T07:43:30.602Z,97432.72
2019-05-19T07:46:00.810Z,97435.62
2019-05-19T07:48:31.611Z,97443.26
2019-05-19T07:51:02.354Z,97439.19
2019-05-19T07:53:42.656Z,97435.59
2019-05-19T07:56:04.920Z,97437.59
2019-05-19T07:58:35.171Z,97435.22
2019-05-19T08:01:05.691Z,97437.03
2019-05-19T08:03:35.883Z,97439.08
2019-05-19T08:06:06.427Z,97441.77
2019-05-19T08:08:36.811Z,97439.73
2019-05-19T08:11:07.379Z,97445.21
2019-05-19T08:13:37.591Z,97448.89
2019-05-19T08:16:08.107Z,97454.48
2019-05-19T08:18:38.526Z,97457.23
2019-05-19T08:21:09.150Z,97453.04
2019-05-19T08:23:39.396Z,97449.81
2019-05-19T08:26:09.954Z,97444.50
2019-05-19T08:28:40.946Z,97449.28
2019-05-19T08:31:11.787Z,97450.13
2019-05-19T08:33:41.994Z,97450.41
2019-05-19T08:36:12.357Z,97448.84
2019-05-19T08:38:42.553Z,97449.66
2019-05-19T08:41:12.825Z,97444.70
2019-05-19T08:43:43.449Z,97444.67
2019-05-19T08:46:14.039Z,97442.30
2019-05-19T08:48:44.917Z,97442.62
2019-05-19T08:51:15.130Z,97443.06
2019-05-19T08:53:45.313Z,97446.28
2019-05-19T08:56:15.522Z,97441.56
2019-05-19T08:58:46.859Z,97437.00
2019-05-19T09:01:17.075Z,97441.30
2019-05-19T09:03:47.749Z,97437.83
2019-05-19T09:06:18.269Z,97438.89
2019-05-19T09:08:48.498Z,97433.47
2019-05-19T09:11:19.048Z,97440.23
2019-05-19T09:13:49.231Z,97436.47
2019-05-19T09:16:19.919Z,97436.25
2019-05-19T09:18:50.110Z,97437.56
2019-05-19T09:21:20.474Z,97438.42
2019-05-19T09:23:51.855Z,97436.88
2019-05-19T09:26:22.184Z,97443.77
2019-05-19T09:28:52.849Z,97436.80
2019-05-19T09:31:23.097Z,97443.81
2019-05-19T09:33:56.899Z,97438.13
2019-05-19T09:36:28.917Z,97441.09
2019-05-19T09:39:00.731Z,97439.10
2019-05-19T09:41:33.191Z,97439.70
2019-05-19T09:44:03.654Z,97437.09
2019-05-19T09:46:36.282Z,97433.98
2019-05-19T09:49:24.755Z,97436.39
2019-05-19T09:51:55.328Z,97439.09
2019-05-19T09:54:25.637Z,97440.28
2019-05-19T09:56:55.868Z,97436.50
2019-05-19T09:59:26.073Z,97431.75
2019-05-19T10:01:56.373Z,97439.56
2019-05-19T10:04:28.347Z,97433.49
2019-05-19T10:06:59.152Z,97444.06
2019-05-19T10:09:57.673Z,97436.52
2019-05-19T10:12:28.618Z,97434.06
2019-05-19T10:14:59.360Z,97430.10
2019-05-19T10:17:29.922Z,97433.70
2019-05-19T10:20:00.126Z,97431.66
2019-05-19T10:22:30.522Z,97428.65
2019-05-19T10:25:20.554Z,97423.20
2019-05-19T10:27:32.827Z,97421.23
2019-05-19T10:30:03.366Z,97420.03
2019-05-19T10:32:33.599Z,97415.66
2019-05-19T10:35:03.820Z,97416.83
2019-05-19T10:37:35.633Z,97417.38
2019-05-19T10:40:06.677Z,97416.90
2019-05-19T10:42:36.984Z,97415.41
2019-05-19T10:45:09.413Z,97414.56
2019-05-19T10:47:39.704Z,97411.93
2019-05-19T10:50:10.280Z,97410.13
2019-05-19T10:52:40.893Z,97409.59
2019-05-19T10:55:11.475Z,97412.91
2019-05-19T10:57:42.026Z,97410.38
2019-05-19T11:00:12.606Z,97411.38
2019-05-19T11:02:43.101Z,97409.70
2019-05-19T11:05:13.490Z,97408.33
2019-05-19T11:07:43.729Z,97410.87
2019-05-19T11:10:14.337Z,97410.28
2019-05-19T11:12:46.987Z,97406.19
2019-05-19T11:15:17.484Z,97406.22
2019-05-19T11:17:47.698Z,97399.03
2019-05-19T11:20:17.921Z,97400.61
2019-05-19T11:22:49.815Z,97401.72
2019-05-19T11:25:33.058Z,97399.45
2019-05-19T11:27:51.907Z,97393.52
2019-05-19T11:30:22.156Z,97391.14
2019-05-19T11:32:52.404Z,97387.88
2019-05-19T11:35:22.661Z,97397.30
2019-05-19T11:37:52.963Z,97397.34
2019-05-19T11:40:23.223Z,97391.49
2019-05-19T11:42:53.514Z,97390.32
2019-05-19T11:45:23.762Z,97393.14
2019-05-19T11:47:54.053Z,97385.23
2019-05-19T11:50:24.893Z,97385.41
2019-05-19T11:52:55.226Z,97385.72
2019-05-19T11:55:25.466Z,97385.50
2019-05-19T11:57:55.768Z,97389.23
2019-05-19T12:00:26.034Z,97388.86
2019-05-19T12:02:56.297Z,97384.66
2019-05-19T12:05:26.629Z,97391.70
2019-05-19T12:07:56.896Z,97385.44
2019-05-19T12:10:27.081Z,97381.48
2019-05-19T12:12:57.365Z,97377.07
2019-05-19T12:15:27.882Z,97377.79
2019-05-19T12:17:58.455Z,97374.96
2019-05-19T12:20:30.120Z,97379.94
2019-05-19T12:23:00.777Z,97374.91
2019-05-19T12:25:32.443Z,97371.66
2019-05-19T12:28:04.021Z,97372.88
2019-05-19T12:30:35.093Z,97363.85
2019-05-19T12:33:08.222Z,97368.60
2019-05-19T12:35:39.957Z,97368.62
2019-05-19T12:38:10.236Z,97357.17
2019-05-19T12:40:40.556Z,97357.70
2019-05-19T12:43:11.154Z,97356.09
2019-05-19T12:45:42.593Z,97361.19
2019-05-19T12:48:12.796Z,97369.33
2019-05-19T12:50:43.461Z,97370.87
2019-05-19T12:53:13.890Z,97364.00
2019-05-19T12:55:44.127Z,97364.31
2019-05-19T12:58:14.677Z,97358.61
2019-05-19T13:00:44.925Z,97356.52
2019-05-19T13:03:17.107Z,97355.05
2019-05-19T13:05:47.306Z,97352.70
2019-05-19T13:08:18.558Z,97346.41
2019-05-19T13:10:50.273Z,97347.45
2019-05-19T13:13:20.971Z,97345.03
2019-05-19T13:15:51.322Z,97348.39
2019-05-19T13:18:21.824Z,97347.23
2019-05-19T13:20:52.460Z,97345.75
2019-05-19T13:23:22.993Z,97348.58
2019-05-19T13:25:53.190Z,97342.60
2019-05-19T13:28:23.372Z,97333.31
2019-05-19T13:30:53.924Z,97335.98
2019-05-19T13:33:24.102Z,97331.77
2019-05-19T13:35:54.322Z,97332.55
2019-05-19T13:38:24.502Z,97331.05
2019-05-19T13:40:54.717Z,97323.98
2019-05-19T13:43:26.678Z,97319.94
2019-05-19T13:45:58.018Z,97322.05
2019-05-19T13:48:28.287Z,97320.88
2019-05-19T13:50:58.564Z,97311.33
2019-05-19T13:53:29.046Z,97312.77
2019-05-19T13:55:59.566Z,97310.17
2019-05-19T13:58:29.738Z,97309.19
2019-05-19T14:00:59.949Z,97303.40
2019-05-19T14:03:30.199Z,97305.45
2019-05-19T14:06:00.546Z,97310.27
2019-05-19T14:08:30.739Z,97312.68
2019-05-19T14:11:00.929Z,97312.91
2019-05-19T14:13:31.224Z,97311.36
2019-05-19T14:16:01.479Z,97314.89
2019-05-19T14:18:31.661Z,97314.63
2019-05-19T14:21:01.868Z,97305.73
2019-05-19T14:23:32.043Z,97312.31
2019-05-19T14:26:02.326Z,97310.34
2019-05-19T14:28:32.507Z,97306.25
2019-05-19T14:31:02.766Z,97302.98
2019-05-19T14:33:32.938Z,97311.13
2019-05-19T14:36:04.219Z,97304.70
2019-05-19T14:38:34.418Z,97292.97
2019-05-19T14:41:04.687Z,97291.80
2019-05-19T14:43:34.875Z,97291.94
2019-05-19T14:46:05.135Z,97298.84
2019-05-19T14:48:35.337Z,97289.73
2019-05-19T14:51:05.553Z,97289.73
2019-05-19T14:53:35.725Z,97289.90
2019-05-19T14:56:05.945Z,97288.78
2019-05-19T14:58:36.153Z,97297.86
2019-05-19T15:01:06.355Z,97298.75
2019-05-19T15:03:36.553Z,97291.02
2019-05-19T15:06:06.767Z,97296.64
2019-05-19T15:08:37.371Z,97282.01
2019-05-19T15:11:07.590Z,97285.77
2019-05-19T15:13:37.841Z,97288.05
2019-05-19T15:16:08.098Z,97278.59
2019-05-19T15:18:38.434Z,97274.45
2019-05-19T15:21:08.763Z,97268.47
2019-05-19T15:23:39.291Z,97277.44
2019-05-19T15:26:09.876Z,97278.59
2019-05-19T15:28:41.082Z,97274.81
2019-05-19T15:31:11.312Z,97276.17
2019-05-19T15:33:41.530Z,97271.36
2019-05-19T15:36:11.789Z,97265.88
2019-05-19T15:38:41.998Z,97269.98
2019-05-19T15:41:12.457Z,97257.51
2019-05-19T15:43:42.657Z,97256.67
2019-05-19T15:46:12.865Z,97267.52
2019-05-19T15:48:43.043Z,97256.36
2019-05-19T15:51:13.582Z,97261.20
2019-05-19T15:53:43.848Z,97264.08
2019-05-19T15:56:14.055Z,97262.80
2019-05-19T15:58:44.360Z,97258.05
2019-05-19T16:01:14.658Z,97260.17
2019-05-19T16:03:44.925Z,97256.70
2019-05-19T16:06:15.235Z,97249.42
2019-05-19T16:08:45.409Z,97249.60
2019-05-19T16:11:16.084Z,97252.95
2019-05-19T16:13:46.279Z,97267.16
2019-05-19T16:16:16.506Z,97254.19
2019-05-19T16:18:46.682Z,97250.08
2019-05-19T16:21:16.956Z,97271.92
2019-05-19T16:23:48.989Z,97258.31
2019-05-19T16:26:19.245Z,97257.80
2019-05-19T16:28:49.558Z,97254.62
2019-05-19T16:31:19.787Z,97259.77
2019-05-19T16:33:50.004Z,97260.31
2019-05-19T16:36:20.447Z,97261.56
2019-05-19T16:38:50.625Z,97264.28
2019-05-19T16:41:20.877Z,97262.41
2019-05-19T16:43:51.428Z,97266.18
2019-05-19T16:46:21.661Z,97263.91
2019-05-19T16:48:51.854Z,97259.20
2019-05-19T16:51:22.405Z,97268.09
2019-05-19T16:53:55.003Z,97270.13
2019-05-19T16:56:25.199Z,97282.84
2019-05-19T16:58:55.427Z,97276.91
2019-05-19T17:01:25.651Z,97285.13
2019-05-19T17:03:55.828Z,97281.63
2019-05-19T17:06:26.039Z,97286.31
2019-05-19T17:08:56.210Z,97283.64
2019-05-19T17:11:26.496Z,97284.99
2019-05-19T17:13:57.097Z,97280.73
2019-05-19T17:16:27.626Z,97287.27
2019-05-19T17:18:57.830Z,97293.64
2019-05-19T17:21:28.089Z,97298.86
2019-05-19T17:23:58.298Z,97297.51
2019-05-19T17:26:28.482Z,97299.03
2019-05-19T17:29:01.009Z,97308.39
2019-05-19T17:31:30.646Z,97310.43
2019-05-19T17:34:01.194Z,97304.66
2019-05-19T17:36:31.391Z,97307.52
2019-05-19T17:39:01.598Z,97306.16
2019-05-19T17:41:33.436Z,97306.27
2019-05-19T17:44:04.119Z,97310.86
2019-05-19T17:46:34.352Z,97308.73
2019-05-19T17:49:04.608Z,97314.25
2019-05-19T17:51:34.942Z,97314.20
2019-05-19T17:54:05.412Z,97309.87
2019-05-19T17:56:37.411Z,97312.98
2019-05-19T17:59:16.078Z,97310.30
2019-05-19T18:01:41.640Z,97313.76
2019-05-19T18:04:12.161Z,97320.65
2019-05-19T18:06:42.362Z,97323.21
2019-05-19T18:09:12.926Z,97322.05
2019-05-19T18:11:43.445Z,97322.79
2019-05-19T18:14:13.673Z,97329.75
2019-05-19T18:16:44.196Z,97335.91
2019-05-19T18:19:14.708Z,97339.33
2019-05-19T18:21:45.566Z,97337.33
2019-05-19T18:24:16.390Z,97327.84
2019-05-19T18:26:46.591Z,97336.67
2019-05-19T18:29:30.447Z,97338.71
2019-05-19T18:31:49.037Z,97335.06
2019-05-19T18:34:19.248Z,97343.78
2019-05-19T18:36:49.559Z,97340.96
2019-05-19T18:39:20.866Z,97336.86
2019-05-19T18:41:51.056Z,97342.67
2019-05-19T18:44:21.283Z,97342.42
2019-05-19T18:46:51.866Z,97341.30
2019-05-19T18:49:22.112Z,97338.88
2019-05-19T18:51:52.350Z,97343.34
2019-05-19T18:54:22.593Z,97347.87
2019-05-19T18:56:53.292Z,97339.93
2019-05-19T18:59:23.820Z,97353.42
2019-05-19T19:01:54.156Z,97355.09
2019-05-19T19:04:24.393Z,97364.59
2019-05-19T19:06:54.863Z,97369.73
2019-05-19T19:09:25.170Z,97370.05
2019-05-19T19:11:55.369Z,97375.76
2019-05-19T19:14:27.611Z,97380.66
2019-05-19T19:16:57.641Z,97380.97
2019-05-19T19:19:27.849Z,97380.89
2019-05-19T19:21:58.363Z,97374.61
2019-05-19T19:24:28.581Z,97377.22
2019-05-19T19:26:59.129Z,97380.83
2019-05-19T19:29:29.341Z,97387.66
2019-05-19T19:31:59.548Z,97381.73
2019-05-19T19:34:29.861Z,97392.77
2019-05-19T19:37:00.323Z,97396.73
2019-05-19T19:39:30.891Z,97400.69
2019-05-19T19:42:01.448Z,97410.16
2019-05-19T19:44:32.017Z,97411.50
2019-05-19T19:47:02.261Z,97417.75
2019-05-19T19:49:32.802Z,97415.23
2019-05-19T19:52:03.006Z,97421.00
2019-05-19T19:54:33.819Z,97419.31
2019-05-19T19:57:04.012Z,97424.38
2019-05-19T19:59:34.264Z,97425.59
2019-05-19T20:02:04.721Z,97431.33
2019-05-19T20:04:34.920Z,97425.42
2019-05-19T20:07:05.098Z,97424.08
2019-05-19T20:09:35.674Z,97424.77
2019-05-19T20:12:06.439Z,97430.16
2019-05-19T20:14:38.700Z,97428.59
2019-05-19T20:17:09.202Z,97432.42
2019-05-19T20:19:39.404Z,97430.77
2019-05-19T20:22:09.591Z,97433.72
2019-05-19T20:24:40.179Z,97445.84
2019-05-19T20:27:10.522Z,97440.80
2019-05-19T20:29:40.872Z,97445.53
2019-05-19T20:32:11.090Z,97445.24
2019-05-19T20:34:41.369Z,97443.13
2019-05-19T20:37:15.251Z,97441.98
2019-05-19T20:39:44.772Z,97443.20
2019-05-19T20:42:14.985Z,97443.45
2019-05-19T20:44:45.192Z,97448.37
2019-05-19T20:47:15.373Z,97448.55
2019-05-19T20:49:46.856Z,97446.72
2019-05-19T20:52:17.120Z,97448.41
2019-05-19T20:54:47.766Z,97446.38
2019-05-19T20:57:19.319Z,97448.06
2019-05-19T20:59:50.146Z,97450.24
2019-05-19T21:02:21.141Z,97448.06
2019-05-19T21:04:51.442Z,97457.14
2019-05-19T21:07:21.639Z,97454.42
2019-05-19T21:09:51.858Z,97453.74
2019-05-19T21:12:22.030Z,97454.06
2019-05-19T21:14:52.251Z,97455.55
2019-05-19T21:17:22.538Z,97454.28
2019-05-19T21:19:53.635Z,97451.95
2019-05-19T21:22:24.894Z,97452.30
2019-05-19T21:24:55.151Z,97452.88
2019-05-19T21:27:25.442Z,97454.54
2019-05-19T21:29:55.997Z,97455.41
2019-05-19T21:32:26.212Z,97451.69
2019-05-19T21:34:56.490Z,97449.36
2019-05-19T21:37:26.745Z,97442.28
2019-05-19T21:39:56.940Z,97447.03
2019-05-19T21:42:27.423Z,97448.08
2019-05-19T21:44:57.952Z,97444.05
2019-05-19T21:47:28.482Z,97446.75
2019-05-19T21:49:58.937Z,97449.45
2019-05-19T21:52:29.565Z,97448.98
2019-05-19T21:54:59.781Z,97456.20
2019-05-19T21:57:30.380Z,97458.40
2019-05-19T22:00:01.268Z,97451.98
2019-05-19T22:02:32.533Z,97447.95
2019-05-19T22:05:02.743Z,97452.72
2019-05-19T22:07:48.643Z,97459.09
2019-05-19T22:10:18.880Z,97460.29
2019-05-19T22:12:49.443Z,97451.39
2019-05-19T22:15:19.731Z,97456.11
2019-05-19T22:17:50.300Z,97453.09
2019-05-19T22:20:21.506Z,97451.75
2019-05-19T22:22:51.699Z,97453.95
2019-05-19T22:25:21.882Z,97451.97
2019-05-19T22:27:52.096Z,97452.28
2019-05-19T22:30:22.440Z,97453.78
2019-05-19T22:32:52.629Z,97455.79
2019-05-19T22:35:23.246Z,97457.34
2019-05-19T22:37:53.974Z,97459.52
2019-05-19T22:40:25.422Z,97463.70
2019-05-19T22:42:57.691Z,97459.67
2019-05-19T22:45:28.119Z,97459.69
2019-05-19T22:47:58.752Z,97461.71
2019-05-19T22:50:30.122Z,97461.41
2019-05-19T22:53:00.312Z,97460.09
2019-05-19T22:55:30.905Z,97460.81
2019-05-19T22:58:01.435Z,97461.73
2019-05-19T23:00:31.727Z,97459.56
2019-05-19T23:03:02.084Z,97459.93
2019-05-19T23:05:32.629Z,97467.33
2019-05-19T23:08:03.010Z,97467.52
2019-05-19T23:10:33.233Z,97464.88
2019-05-19T23:13:03.453Z,97468.74
2019-05-19T23:15:33.642Z,97473.09
2019-05-19T23:18:03.864Z,97477.13
2019-05-19T23:20:34.192Z,97474.47
2019-05-19T23:23:04.430Z,97474.50
2019-05-19T23:25:34.662Z,97476.17
2019-05-19T23:28:04.921Z,97481.54
2019-05-19T23:30:35.138Z,97482.88
2019-05-19T23:33:05.751Z,97478.53
2019-05-19T23:35:36.731Z,97485.41
2019-05-19T23:38:07.243Z,97478.70
2019-05-19T23:40:37.486Z,97479.91
2019-05-19T23:43:08.100Z,97480.25
2019-05-19T23:45:39.652Z,97482.94
2019-05-19T23:48:10.167Z,97486.48
2019-05-19T23:50:40.395Z,97480.58
2019-05-19T23:53:10.638Z,97478.56
2019-05-19T23:55:40.922Z,97474.88
2019-05-19T23:58:11.234Z,97484.13
